createdAt,value
2019-02-09T00:01:38.163Z,4.25
2019-02-09T00:04:04.509Z,4.23
2019-02-09T00:06:32.291Z,4.18
2019-02-09T00:08:58.104Z,4.24
2019-02-09T00:11:27.300Z,4.28
2019-02-09T00:13:53.425Z,4.28
2019-02-09T00:16:19.356Z,4.31
2019-02-09T00:18:45.160Z,4.26
2019-02-09T00:21:11.027Z,4.20
2019-02-09T00:23:39.739Z,4.20
2019-02-09T00:26:05.963Z,4.18
2019-02-09T00:28:34.687Z,4.26
2019-02-09T00:31:00.807Z,4.35
2019-02-09T00:33:29.386Z,4.40
2019-02-09T00:35:55.303Z,4.51
2019-02-09T00:38:24.200Z,4.63
2019-02-09T00:40:50.056Z,4.69
2019-02-09T00:43:18.940Z,4.75
2019-02-09T00:45:44.860Z,4.75
2019-02-09T00:48:14.027Z,4.70
2019-02-09T00:50:40.209Z,4.68
2019-02-09T00:53:06.310Z,4.63
2019-02-09T00:55:32.116Z,4.61
2019-02-09T00:57:58.080Z,4.58
2019-02-09T01:00:31.754Z,4.54
2019-02-09T01:02:58.178Z,4.45
2019-02-09T01:05:28.142Z,4.46
2019-02-09T01:07:54.157Z,4.43
2019-02-09T01:10:20.438Z,4.33
2019-02-09T01:12:46.288Z,4.32
2019-02-09T01:15:14.216Z,4.26
2019-02-09T01:17:40.046Z,4.18
2019-02-09T01:20:09.593Z,4.30
2019-02-09T01:22:35.849Z,4.27
2019-02-09T01:25:03.262Z,4.40
2019-02-09T01:27:29.076Z,4.43
2019-02-09T01:30:02.275Z,4.43
2019-02-09T01:32:22.953Z,4.46
2019-02-09T01:34:48.949Z,4.49
2019-02-09T01:37:14.766Z,4.63
2019-02-09T01:39:40.870Z,4.68
2019-02-09T01:42:07.759Z,4.76
2019-02-09T01:44:33.868Z,4.78
2019-02-09T01:46:59.685Z,4.92
2019-02-09T01:49:25.499Z,5.03
2019-02-09T01:51:54.098Z,4.96
2019-02-09T01:54:20.224Z,4.88
2019-02-09T01:56:48.970Z,4.92
2019-02-09T01:59:15.105Z,4.86
2019-02-09T02:01:44.279Z,4.92
2019-02-09T02:04:10.373Z,5.00
2019-02-09T02:06:36.314Z,5.10
2019-02-09T02:09:04.971Z,5.25
2019-02-09T02:11:31.072Z,5.35
2019-02-09T02:13:57.160Z,5.44
2019-02-09T02:16:23.510Z,5.55
2019-02-09T02:18:52.694Z,5.73
2019-02-09T02:21:18.816Z,5.83
2019-02-09T02:23:44.645Z,5.97
2019-02-09T02:26:10.753Z,6.13
2019-02-09T02:28:38.782Z,6.22
2019-02-09T02:31:04.733Z,6.30
2019-02-09T02:33:36.306Z,6.30
2019-02-09T02:36:02.417Z,6.32
2019-02-09T02:38:28.263Z,6.36
2019-02-09T02:40:54.446Z,6.41
2019-02-09T02:43:20.309Z,6.40
2019-02-09T02:45:46.358Z,6.36
2019-02-09T02:48:12.450Z,6.42
2019-02-09T02:50:41.319Z,6.54
2019-02-09T02:53:07.154Z,6.69
2019-02-09T02:55:35.726Z,6.76
2019-02-09T02:58:01.560Z,6.77
2019-02-09T03:00:32.892Z,6.78
2019-02-09T03:02:59.342Z,6.81
2019-02-09T03:05:25.386Z,6.80
2019-02-09T03:07:51.902Z,6.84
2019-02-09T03:10:19.711Z,6.90
2019-02-09T03:12:45.654Z,7.00
2019-02-09T03:15:20.132Z,7.00
2019-02-09T03:17:46.098Z,7.04
2019-02-09T03:20:35.203Z,7.04
2019-02-09T03:23:01.054Z,7.17
2019-02-09T03:25:28.991Z,7.21
2019-02-09T03:27:55.113Z,7.22
2019-02-09T03:30:22.623Z,7.19
2019-02-09T03:32:48.565Z,7.12
2019-02-09T03:35:15.222Z,7.08
2019-02-09T03:37:41.443Z,7.06
2019-02-09T03:40:21.666Z,7.01
2019-02-09T03:42:47.723Z,6.94
2019-02-09T03:45:16.323Z,6.84
2019-02-09T03:47:42.435Z,6.69
2019-02-09T03:50:14.013Z,6.60
2019-02-09T03:52:39.864Z,6.50
2019-02-09T03:55:06.077Z,6.37
2019-02-09T03:57:31.925Z,5.43
2019-02-09T03:59:58.002Z,6.25
2019-02-09T04:02:24.066Z,6.17
2019-02-09T04:04:50.196Z,6.10
2019-02-09T04:07:16.002Z,6.00
2019-02-09T04:09:41.849Z,5.96
2019-02-09T04:12:07.774Z,5.86
2019-02-09T04:14:33.620Z,5.82
2019-02-09T04:16:59.437Z,5.75
2019-02-09T04:19:25.329Z,5.63
2019-02-09T04:21:51.150Z,5.63
2019-02-09T04:24:17.018Z,5.62
2019-02-09T04:26:42.857Z,5.63
2019-02-09T04:29:08.691Z,5.55
2019-02-09T04:31:34.624Z,5.49
2019-02-09T04:34:00.455Z,5.16
2019-02-09T04:36:26.306Z,5.42
2019-02-09T04:38:52.130Z,5.45
2019-02-09T04:41:17.974Z,5.52
2019-02-09T04:43:43.867Z,5.26
2019-02-09T04:46:09.702Z,5.59
2019-02-09T04:48:35.548Z,5.57
2019-02-09T04:51:01.372Z,5.56
2019-02-09T04:53:27.194Z,5.54
2019-02-09T04:55:53.061Z,5.50
2019-02-09T04:58:18.879Z,5.48
2019-02-09T05:00:44.724Z,5.49
2019-02-09T05:03:10.874Z,5.46
2019-02-09T05:05:36.695Z,5.43
2019-02-09T05:08:02.658Z,5.40
2019-02-09T05:10:28.898Z,5.37
2019-02-09T05:12:54.756Z,5.35
2019-02-09T05:15:21.253Z,5.41
2019-02-09T05:17:47.684Z,5.44
2019-02-09T05:20:15.642Z,5.49
2019-02-09T05:22:41.476Z,5.48
2019-02-09T05:25:09.898Z,5.47
2019-02-09T05:27:35.766Z,5.41
2019-02-09T05:30:02.577Z,5.39
2019-02-09T05:32:28.708Z,5.40
2019-02-09T05:34:54.541Z,5.43
2019-02-09T05:37:20.401Z,5.42
2019-02-09T05:39:46.234Z,5.41
2019-02-09T05:42:16.899Z,5.37
2019-02-09T05:44:42.742Z,5.42
2019-02-09T05:47:08.833Z,5.51
2019-02-09T05:49:34.679Z,5.66
2019-02-09T05:52:00.950Z,5.76
2019-02-09T05:54:27.326Z,5.86
2019-02-09T05:56:53.128Z,5.88
2019-02-09T05:59:22.351Z,5.98
2019-02-09T06:01:48.203Z,6.09
2019-02-09T06:04:17.429Z,6.17
2019-02-09T06:06:43.234Z,6.17
2019-02-09T06:09:12.323Z,6.15
2019-02-09T06:11:38.306Z,6.17
2019-02-09T06:14:05.958Z,6.15
2019-02-09T06:16:31.808Z,6.12
2019-02-09T06:19:00.421Z,6.14
2019-02-09T06:21:26.319Z,6.16
2019-02-09T06:23:52.105Z,6.17
2019-02-09T06:26:18.239Z,6.11
2019-02-09T06:28:44.043Z,6.12
2019-02-09T06:31:12.915Z,6.18
2019-02-09T06:33:38.725Z,6.24
2019-02-09T06:36:07.766Z,6.37
2019-02-09T06:38:33.604Z,6.49
2019-02-09T06:41:02.697Z,6.71
2019-02-09T06:43:28.543Z,6.81
2019-02-09T06:45:57.564Z,6.83
2019-02-09T06:48:46.310Z,6.88
2019-02-09T06:51:12.449Z,6.85
2019-02-09T06:53:38.277Z,6.98
2019-02-09T06:56:04.232Z,7.10
2019-02-09T06:58:30.391Z,7.11
2019-02-09T07:00:56.211Z,7.10
2019-02-09T07:03:22.096Z,7.19
2019-02-09T07:05:48.229Z,7.45
2019-02-09T07:08:14.054Z,7.50
2019-02-09T07:10:40.255Z,7.52
2019-02-09T07:13:06.135Z,7.59
2019-02-09T07:15:33.668Z,7.83
2019-02-09T07:17:59.493Z,7.97
2019-02-09T07:20:25.443Z,8.13
2019-02-09T07:22:51.783Z,8.28
2019-02-09T07:25:18.124Z,8.21
2019-02-09T07:27:44.045Z,8.46
2019-02-09T07:30:16.104Z,8.64
2019-02-09T07:32:41.933Z,8.61
2019-02-09T07:35:10.448Z,8.86
2019-02-09T07:37:36.586Z,9.00
2019-02-09T07:40:06.210Z,9.18
2019-02-09T07:42:32.164Z,8.64
2019-02-09T07:44:58.004Z,7.98
2019-02-09T07:47:23.831Z,7.63
2019-02-09T07:49:49.931Z,7.52
2019-02-09T07:52:15.853Z,7.62
2019-02-09T07:54:41.821Z,8.13
2019-02-09T07:57:07.887Z,8.58
2019-02-09T07:59:33.741Z,9.17
2019-02-09T08:02:04.645Z,9.44
2019-02-09T08:04:27.762Z,9.96
2019-02-09T08:06:53.572Z,10.19
2019-02-09T08:09:19.420Z,10.21
2019-02-09T08:11:45.227Z,10.36
2019-02-09T08:14:11.070Z,10.55
2019-02-09T08:16:37.177Z,10.85
2019-02-09T08:19:03.180Z,11.00
2019-02-09T08:21:29.006Z,11.14
2019-02-09T08:23:55.140Z,11.64
2019-02-09T08:26:24.197Z,10.97
2019-02-09T08:28:50.282Z,9.86
2019-02-09T08:31:17.429Z,8.90
2019-02-09T08:33:43.257Z,8.49
2019-02-09T08:36:12.529Z,8.35
2019-02-09T08:38:38.331Z,8.25
2019-02-09T08:41:08.860Z,8.25
2019-02-09T08:43:34.693Z,8.51
2019-02-09T08:46:03.484Z,8.63
2019-02-09T08:48:29.330Z,8.79
2019-02-09T08:50:59.265Z,9.34
2019-02-09T08:53:25.108Z,8.98
2019-02-09T08:55:51.249Z,8.69
2019-02-09T08:58:17.073Z,8.90
2019-02-09T09:00:43.013Z,9.74
2019-02-09T09:03:09.294Z,9.83
2019-02-09T09:05:35.789Z,9.45
2019-02-09T09:08:04.779Z,9.98
2019-02-09T09:10:30.740Z,10.14
2019-02-09T09:13:00.078Z,9.64
2019-02-09T09:15:38.928Z,9.13
2019-02-09T09:18:05.724Z,9.01
2019-02-09T09:20:34.173Z,9.05
2019-02-09T09:22:59.983Z,9.50
2019-02-09T09:25:26.180Z,10.94
2019-02-09T09:27:52.512Z,11.77
2019-02-09T09:30:24.275Z,11.45
2019-02-09T09:32:50.486Z,10.51
2019-02-09T09:35:16.414Z,9.76
2019-02-09T09:37:42.844Z,9.53
2019-02-09T09:40:12.503Z,9.68
2019-02-09T09:42:38.639Z,9.42
2019-02-09T09:45:08.270Z,9.23
2019-02-09T09:47:34.089Z,9.18
2019-02-09T09:50:00.045Z,9.41
2019-02-09T09:52:25.877Z,9.34
2019-02-09T09:54:51.718Z,9.88
2019-02-09T09:57:17.703Z,10.25
2019-02-09T09:59:43.833Z,10.34
2019-02-09T10:02:09.761Z,9.85
2019-02-09T10:04:35.593Z,9.37
2019-02-09T10:07:01.723Z,9.27
2019-02-09T10:09:27.543Z,9.15
2019-02-09T10:11:53.409Z,9.37
2019-02-09T10:14:19.261Z,9.34
2019-02-09T10:16:45.398Z,9.54
2019-02-09T10:19:11.251Z,9.62
2019-02-09T10:21:37.088Z,9.80
2019-02-09T10:24:03.348Z,9.77
2019-02-09T10:26:29.275Z,9.47
2019-02-09T10:28:55.091Z,9.54
2019-02-09T10:31:25.033Z,9.53
2019-02-09T10:33:50.858Z,9.64
2019-02-09T10:36:19.470Z,9.86
2019-02-09T10:38:45.352Z,9.84
2019-02-09T10:41:11.469Z,9.95
2019-02-09T10:43:37.303Z,9.78
2019-02-09T10:46:03.317Z,9.62
2019-02-09T10:48:29.188Z,9.30
2019-02-09T10:50:55.009Z,9.15
2019-02-09T10:53:25.419Z,9.05
2019-02-09T10:55:51.560Z,9.04
2019-02-09T10:58:18.637Z,8.65
2019-02-09T11:00:50.515Z,9.08
2019-02-09T11:03:16.780Z,9.18
2019-02-09T11:05:42.923Z,9.21
2019-02-09T11:08:08.884Z,9.26
2019-02-09T11:10:35.381Z,9.36
2019-02-09T11:13:05.007Z,9.43
2019-02-09T11:15:30.985Z,9.44
2019-02-09T11:17:57.066Z,9.46
2019-02-09T11:20:23.395Z,9.92
2019-02-09T11:22:52.572Z,9.91
2019-02-09T11:25:19.908Z,9.74
2019-02-09T11:27:48.779Z,9.93
2019-02-09T11:30:23.796Z,10.18
2019-02-09T11:32:49.720Z,10.57
2019-02-09T11:35:15.990Z,10.61
2019-02-09T11:37:41.909Z,10.66
2019-02-09T11:40:27.882Z,10.78
2019-02-09T11:42:54.362Z,11.10
2019-02-09T11:45:22.407Z,11.22
2019-02-09T11:47:48.422Z,11.50
2019-02-09T11:50:15.047Z,11.67
2019-02-09T11:52:41.257Z,11.52
2019-02-09T11:55:10.713Z,11.59
2019-02-09T11:57:36.640Z,11.65
2019-02-09T12:00:08.821Z,11.67
2019-02-09T12:02:34.630Z,11.57
2019-02-09T12:05:00.539Z,10.92
2019-02-09T12:07:26.393Z,10.66
2019-02-09T12:09:52.527Z,10.87
2019-02-09T12:12:18.332Z,10.91
2019-02-09T12:14:50.398Z,11.00
2019-02-09T12:17:16.237Z,9.63
2019-02-09T12:19:42.065Z,11.56
2019-02-09T12:22:07.906Z,11.77
2019-02-09T12:24:34.002Z,11.77
2019-02-09T12:27:00.142Z,11.80
2019-02-09T12:29:25.984Z,11.40
2019-02-09T12:31:52.086Z,11.29
2019-02-09T12:34:17.946Z,11.00
2019-02-09T12:36:44.050Z,11.30
2019-02-09T12:39:10.383Z,11.15
2019-02-09T12:41:36.321Z,10.69
2019-02-09T12:44:02.146Z,10.67
2019-02-09T12:46:27.986Z,10.32
2019-02-09T12:48:54.116Z,10.28
2019-02-09T12:51:20.045Z,10.31
2019-02-09T12:53:46.143Z,10.12
2019-02-09T12:56:12.099Z,10.22
2019-02-09T12:58:38.209Z,10.20
2019-02-09T13:01:04.151Z,10.22
2019-02-09T13:03:31.532Z,10.26
2019-02-09T13:06:00.671Z,10.33
2019-02-09T13:08:26.593Z,10.28
2019-02-09T13:10:52.837Z,10.16
2019-02-09T13:13:18.922Z,10.12
2019-02-09T13:15:44.876Z,10.10
2019-02-09T13:18:10.703Z,9.91
2019-02-09T13:20:36.627Z,9.88
2019-02-09T13:23:04.883Z,9.88
2019-02-09T13:25:30.713Z,9.92
2019-02-09T13:27:56.562Z,9.90
2019-02-09T13:30:36.886Z,9.96
2019-02-09T13:33:03.316Z,9.94
2019-02-09T13:35:29.460Z,10.02
2019-02-09T13:37:55.387Z,9.91
2019-02-09T13:40:22.528Z,9.91
2019-02-09T13:42:48.470Z,9.96
2019-02-09T13:45:40.818Z,10.09
2019-02-09T13:48:07.352Z,10.11
2019-02-09T13:50:34.032Z,10.06
2019-02-09T13:53:00.279Z,9.97
2019-02-09T13:55:26.443Z,9.83
2019-02-09T13:57:52.478Z,9.73
2019-02-09T14:00:23.197Z,9.74
2019-02-09T14:02:49.255Z,9.75
2019-02-09T14:05:15.205Z,9.71
2019-02-09T14:07:41.757Z,9.69
2019-02-09T14:10:18.812Z,9.72
2019-02-09T14:12:44.671Z,9.73
2019-02-09T14:15:25.383Z,9.72
2019-02-09T14:17:51.827Z,9.69
2019-02-09T14:20:17.964Z,9.61
2019-02-09T14:22:44.140Z,9.40
2019-02-09T14:25:14.605Z,9.28
2019-02-09T14:27:41.202Z,9.25
2019-02-09T14:30:16.640Z,9.20
2019-02-09T14:32:42.561Z,9.16
2019-02-09T14:35:09.700Z,9.13
2019-02-09T14:37:35.540Z,9.04
2019-02-09T14:40:01.524Z,9.01
2019-02-09T14:42:27.487Z,8.98
2019-02-09T14:44:53.702Z,9.01
2019-02-09T14:47:19.541Z,9.05
2019-02-09T14:49:45.729Z,9.01
2019-02-09T14:52:11.830Z,8.99
2019-02-09T14:54:37.646Z,8.99
2019-02-09T14:57:03.792Z,8.96
2019-02-09T14:59:29.609Z,8.98
2019-02-09T15:01:55.549Z,9.00
2019-02-09T15:04:21.694Z,8.99
2019-02-09T15:06:47.791Z,9.02
2019-02-09T15:09:13.621Z,9.05
2019-02-09T15:11:39.774Z,9.05
2019-02-09T15:14:05.800Z,8.89
2019-02-09T15:16:32.632Z,9.02
2019-02-09T15:18:58.439Z,9.00
2019-02-09T15:21:24.571Z,9.00
2019-02-09T15:23:50.456Z,8.98
2019-02-09T15:26:16.265Z,8.95
2019-02-09T15:28:43.008Z,8.92
2019-02-09T15:31:08.968Z,8.92
2019-02-09T15:33:34.810Z,8.92
2019-02-09T15:36:00.721Z,8.88
2019-02-09T15:38:26.554Z,8.88
2019-02-09T15:40:52.423Z,8.86
2019-02-09T15:43:18.264Z,8.81
2019-02-09T15:45:44.378Z,8.78
2019-02-09T15:48:10.216Z,8.77
2019-02-09T15:50:36.069Z,8.77
2019-02-09T15:53:01.921Z,8.76
2019-02-09T15:55:28.026Z,8.76
2019-02-09T15:57:53.896Z,8.73
2019-02-09T16:00:30.248Z,8.75
2019-02-09T16:02:57.515Z,8.71
2019-02-09T16:05:24.017Z,8.39
2019-02-09T16:07:50.154Z,8.66
2019-02-09T16:10:20.265Z,8.60
2019-02-09T16:12:46.376Z,8.58
2019-02-09T16:15:15.275Z,8.55
2019-02-09T16:17:41.423Z,8.47
2019-02-09T16:20:11.039Z,8.40
2019-02-09T16:22:36.890Z,8.38
2019-02-09T16:25:05.742Z,8.36
2019-02-09T16:27:31.811Z,8.40
2019-02-09T16:29:57.649Z,8.41
2019-02-09T16:32:23.559Z,8.37
2019-02-09T16:34:49.412Z,8.33
2019-02-09T16:37:15.238Z,8.38
2019-02-09T16:39:41.378Z,8.37
2019-02-09T16:42:07.469Z,8.35
2019-02-09T16:44:33.315Z,8.37
2019-02-09T16:46:59.134Z,7.96
2019-02-09T16:49:24.972Z,8.32
2019-02-09T16:51:50.969Z,8.30
2019-02-09T16:54:17.080Z,8.33
2019-02-09T16:56:42.941Z,8.29
2019-02-09T16:59:08.954Z,8.27
2019-02-09T17:01:38.244Z,8.25
2019-02-09T17:04:04.157Z,7.14
2019-02-09T17:06:29.981Z,8.11
2019-02-09T17:08:55.825Z,8.16
2019-02-09T17:11:21.665Z,8.11
2019-02-09T17:13:47.493Z,8.09
2019-02-09T17:16:13.329Z,8.08
2019-02-09T17:18:39.159Z,8.08
2019-02-09T17:21:05.029Z,8.16
2019-02-09T17:23:30.877Z,8.18
2019-02-09T17:25:56.685Z,8.17
2019-02-09T17:28:22.628Z,8.18
2019-02-09T17:30:48.488Z,8.13
2019-02-09T17:33:14.691Z,8.14
2019-02-09T17:35:40.509Z,8.14
2019-02-09T17:38:06.709Z,8.16
2019-02-09T17:40:35.771Z,8.23
2019-02-09T17:43:01.668Z,8.22
2019-02-09T17:45:30.425Z,8.22
2019-02-09T17:47:56.249Z,8.23
2019-02-09T17:50:22.609Z,8.23
2019-02-09T17:52:48.526Z,8.21
2019-02-09T17:55:18.659Z,8.19
2019-02-09T17:57:44.776Z,8.20
2019-02-09T18:00:13.695Z,8.16
2019-02-09T18:02:39.513Z,8.05
2019-02-09T18:05:05.566Z,8.09
2019-02-09T18:07:31.689Z,8.13
2019-02-09T18:09:57.557Z,8.17
2019-02-09T18:12:23.755Z,8.14
2019-02-09T18:14:49.897Z,8.06
2019-02-09T18:17:15.817Z,8.00
2019-02-09T18:19:42.774Z,7.99
2019-02-09T18:22:09.096Z,7.97
2019-02-09T18:24:34.965Z,7.93
2019-02-09T18:27:00.790Z,7.94
2019-02-09T18:29:26.918Z,7.90
2019-02-09T18:31:52.756Z,7.90
2019-02-09T18:34:18.616Z,7.84
2019-02-09T18:36:44.705Z,7.84
2019-02-09T18:39:10.636Z,7.81
2019-02-09T18:41:36.528Z,7.78
2019-02-09T18:44:02.826Z,7.76
2019-02-09T18:46:28.665Z,7.70
2019-02-09T18:48:54.815Z,7.65
2019-02-09T18:51:24.403Z,7.64
2019-02-09T18:53:50.529Z,7.60
2019-02-09T18:56:19.695Z,7.54
2019-02-09T18:58:45.483Z,7.53
2019-02-09T19:01:14.373Z,7.24
2019-02-09T19:03:40.189Z,7.53
2019-02-09T19:06:09.092Z,7.52
2019-02-09T19:08:34.929Z,7.53
2019-02-09T19:11:03.749Z,7.50
2019-02-09T19:13:29.633Z,7.55
2019-02-09T19:15:55.597Z,7.55
2019-02-09T19:18:21.411Z,7.59
2019-02-09T19:20:54.094Z,7.55
2019-02-09T19:23:20.235Z,7.59
2019-02-09T19:25:46.473Z,7.56
2019-02-09T19:28:12.286Z,7.53
2019-02-09T19:30:38.249Z,7.51
2019-02-09T19:33:05.141Z,7.53
2019-02-09T19:35:30.950Z,7.47
2019-02-09T19:37:59.812Z,7.48
2019-02-09T19:40:26.728Z,7.45
2019-02-09T19:42:56.028Z,7.40
2019-02-09T19:45:28.749Z,7.38
2019-02-09T19:47:54.604Z,7.37
2019-02-09T19:50:20.447Z,7.41
2019-02-09T19:52:46.255Z,7.43
2019-02-09T19:55:22.216Z,7.42
2019-02-09T19:57:48.403Z,7.45
2019-02-09T20:00:38.563Z,7.42
2019-02-09T20:03:05.012Z,7.38
2019-02-09T20:05:30.856Z,7.26
2019-02-09T20:07:56.700Z,7.22
2019-02-09T20:10:29.314Z,7.20
2019-02-09T20:12:55.241Z,7.14
2019-02-09T20:15:21.066Z,7.14
2019-02-09T20:17:46.921Z,7.15
2019-02-09T20:20:17.220Z,7.09
2019-02-09T20:22:43.171Z,7.01
2019-02-09T20:25:17.420Z,6.95
2019-02-09T20:27:43.514Z,6.88
2019-02-09T20:30:13.132Z,6.79
2019-02-09T20:32:38.975Z,6.78
2019-02-09T20:35:08.595Z,6.76
2019-02-09T20:37:34.542Z,6.77
2019-02-09T20:40:00.362Z,6.74
2019-02-09T20:42:26.280Z,6.71
2019-02-09T20:44:52.389Z,6.68
2019-02-09T20:47:18.257Z,6.68
2019-02-09T20:49:44.384Z,6.69
2019-02-09T20:52:10.191Z,6.69
2019-02-09T20:54:36.032Z,6.72
2019-02-09T20:57:01.841Z,6.70
2019-02-09T20:59:33.966Z,6.69
2019-02-09T21:01:59.799Z,6.39
2019-02-09T21:04:25.664Z,6.68
2019-02-09T21:06:51.487Z,6.65
2019-02-09T21:09:17.310Z,6.69
2019-02-09T21:11:43.159Z,6.71
2019-02-09T21:14:08.961Z,6.70
2019-02-09T21:16:34.788Z,6.72
2019-02-09T21:19:00.633Z,6.72
2019-02-09T21:21:26.435Z,6.70
2019-02-09T21:23:52.490Z,6.71
2019-02-09T21:26:18.305Z,6.65
2019-02-09T21:28:44.148Z,6.71
2019-02-09T21:31:09.987Z,6.70
2019-02-09T21:33:35.825Z,6.78
2019-02-09T21:36:01.632Z,6.79
2019-02-09T21:38:27.483Z,6.81
2019-02-09T21:40:53.313Z,6.81
2019-02-09T21:43:19.423Z,6.84
2019-02-09T21:45:45.794Z,6.83
2019-02-09T21:48:11.593Z,6.82
2019-02-09T21:50:37.809Z,6.79
2019-02-09T21:53:05.214Z,6.78
2019-02-09T21:55:31.059Z,6.76
2019-02-09T21:57:57.060Z,6.80
2019-02-09T22:00:26.120Z,6.81
2019-02-09T22:02:52.335Z,6.76
2019-02-09T22:05:18.518Z,6.77
2019-02-09T22:07:44.340Z,6.81
2019-02-09T22:10:16.558Z,6.86
2019-02-09T22:12:42.613Z,6.92
2019-02-09T22:15:10.678Z,6.90
2019-02-09T22:17:36.664Z,6.96
2019-02-09T22:20:06.331Z,6.99
2019-02-09T22:22:32.756Z,7.00
2019-02-09T22:24:58.813Z,7.01
2019-02-09T22:27:25.091Z,6.99
2019-02-09T22:29:50.922Z,7.00
2019-02-09T22:32:17.024Z,6.98
2019-02-09T22:34:43.107Z,7.02
2019-02-09T22:37:09.025Z,7.02
2019-02-09T22:39:35.322Z,6.95
2019-02-09T22:42:01.159Z,6.91
2019-02-09T22:44:27.035Z,6.90
2019-02-09T22:46:53.136Z,6.92
2019-02-09T22:49:19.042Z,6.93
2019-02-09T22:51:44.987Z,6.88
2019-02-09T22:54:10.886Z,6.86
2019-02-09T22:56:36.968Z,6.83
2019-02-09T22:59:03.011Z,6.84
2019-02-09T23:01:35.909Z,6.83
2019-02-09T23:04:05.531Z,6.79
2019-02-09T23:06:41.225Z,6.79
2019-02-09T23:09:08.292Z,6.77
2019-02-09T23:11:34.143Z,6.71
2019-02-09T23:14:00.287Z,6.79
2019-02-09T23:16:26.136Z,6.77
2019-02-09T23:18:51.976Z,6.72
2019-02-09T23:21:17.791Z,6.68
2019-02-09T23:23:43.998Z,6.69
2019-02-09T23:26:09.859Z,6.71
2019-02-09T23:28:35.684Z,6.72
2019-02-09T23:31:01.932Z,6.74
2019-02-09T23:33:27.752Z,6.74
2019-02-09T23:35:53.878Z,6.77
2019-02-09T23:38:19.741Z,6.78
2019-02-09T23:40:45.564Z,6.78
2019-02-09T23:43:11.673Z,6.79
2019-02-09T23:45:37.775Z,6.79
2019-02-09T23:48:03.612Z,6.78
2019-02-09T23:50:29.437Z,6.79
2019-02-09T23:52:55.273Z,6.78
2019-02-09T23:55:21.151Z,6.85
2019-02-09T23:57:47.212Z,6.89
